sensor_id;sensor_type;location;lat;lon;timestamp;P1;durP1;ratioP1;P2;durP2;ratioP2
39442;SDS011;25147;52.142;9.960;2023-04-24T00:00:53;4.00;;;1.20;;
39442;SDS011;25147;52.142;9.960;2023-04-24T00:03:23;1.60;;;1.20;;
39442;SDS011;25147;52.142;9.960;2023-04-24T00:05:50;2.17;;;1.30;;
39442;SDS011;25147;52.142;9.960;2023-04-24T00:08:17;1.92;;;1.20;;
39442;SDS011;25147;52.142;9.960;2023-04-24T00:10:44;2.05;;;1.48;;
39442;SDS011;25147;52.142;9.960;2023-04-24T00:13:11;1.27;;;1.17;;
39442;SDS011;25147;52.142;9.960;2023-04-24T00:15:38;1.48;;;1.20;;
39442;SDS011;25147;52.142;9.960;2023-04-24T00:18:05;1.20;;;1.20;;
39442;SDS011;25147;52.142;9.960;2023-04-24T00:20:33;1.25;;;1.10;;
39442;SDS011;25147;52.142;9.960;2023-04-24T00:23:00;1.40;;;1.30;;
39442;SDS011;25147;52.142;9.960;2023-04-24T00:25:27;1.45;;;1.27;;
39442;SDS011;25147;52.142;9.960;2023-04-24T00:27:54;2.38;;;1.40;;
39442;SDS011;25147;52.142;9.960;2023-04-24T00:30:20;2.15;;;1.45;;
39442;SDS011;25147;52.142;9.960;2023-04-24T00:32:47;1.58;;;1.48;;
39442;SDS011;25147;52.142;9.960;2023-04-24T00:35:13;1.50;;;1.20;;
39442;SDS011;25147;52.142;9.960;2023-04-24T00:37:42;1.50;;;1.40;;
39442;SDS011;25147;52.142;9.960;2023-04-24T00:40:09;2.05;;;1.40;;
39442;SDS011;25147;52.142;9.960;2023-04-24T00:42:36;1.27;;;1.17;;
39442;SDS011;25147;52.142;9.960;2023-04-24T00:45:03;1.60;;;1.33;;
39442;SDS011;25147;52.142;9.960;2023-04-24T00:47:31;1.80;;;1.10;;
39442;SDS011;25147;52.142;9.960;2023-04-24T00:50:00;1.60;;;1.38;;
39442;SDS011;25147;52.142;9.960;2023-04-24T00:52:27;4.13;;;1.70;;
39442;SDS011;25147;52.142;9.960;2023-04-24T00:54:57;1.77;;;1.40;;
39442;SDS011;25147;52.142;9.960;2023-04-24T00:57:24;1.60;;;1.50;;
39442;SDS011;25147;52.142;9.960;2023-04-24T00:59:51;1.88;;;1.50;;
39442;SDS011;25147;52.142;9.960;2023-04-24T01:02:19;1.60;;;1.50;;
39442;SDS011;25147;52.142;9.960;2023-04-24T01:04:47;1.50;;;1.40;;
39442;SDS011;25147;52.142;9.960;2023-04-24T01:07:16;1.70;;;1.38;;
39442;SDS011;25147;52.142;9.960;2023-04-24T01:09:46;2.03;;;1.65;;
39442;SDS011;25147;52.142;9.960;2023-04-24T01:12:17;1.73;;;1.63;;
39442;SDS011;25147;52.142;9.960;2023-04-24T01:14:44;1.60;;;1.50;;
39442;SDS011;25147;52.142;9.960;2023-04-24T01:17:12;2.17;;;1.50;;
39442;SDS011;25147;52.142;9.960;2023-04-24T01:19:38;2.08;;;1.45;;
39442;SDS011;25147;52.142;9.960;2023-04-24T01:22:11;1.65;;;1.42;;
39442;SDS011;25147;52.142;9.960;2023-04-24T01:24:39;1.60;;;1.50;;
39442;SDS011;25147;52.142;9.960;2023-04-24T01:27:06;1.60;;;1.50;;
39442;SDS011;25147;52.142;9.960;2023-04-24T01:29:34;1.75;;;1.65;;
39442;SDS011;25147;52.142;9.960;2023-04-24T01:32:01;2.22;;;1.50;;
39442;SDS011;25147;52.142;9.960;2023-04-24T01:34:29;2.63;;;1.67;;
39442;SDS011;25147;52.142;9.960;2023-04-24T01:36:55;1.67;;;1.58;;
39442;SDS011;25147;52.142;9.960;2023-04-24T01:39:24;2.10;;;1.70;;
39442;SDS011;25147;52.142;9.960;2023-04-24T01:41:51;1.50;;;1.40;;
39442;SDS011;25147;52.142;9.960;2023-04-24T01:44:19;1.55;;;1.30;;
39442;SDS011;25147;52.142;9.960;2023-04-24T01:46:45;1.83;;;1.60;;
39442;SDS011;25147;52.142;9.960;2023-04-24T01:49:12;1.58;;;1.48;;
39442;SDS011;25147;52.142;9.960;2023-04-24T01:51:39;2.65;;;1.50;;
39442;SDS011;25147;52.142;9.960;2023-04-24T01:54:06;1.60;;;1.50;;
39442;SDS011;25147;52.142;9.960;2023-04-24T01:56:34;1.92;;;1.20;;
39442;SDS011;25147;52.142;9.960;2023-04-24T01:59:01;1.48;;;1.38;;
39442;SDS011;25147;52.142;9.960;2023-04-24T02:01:32;2.05;;;1.50;;
39442;SDS011;25147;52.142;9.960;2023-04-24T02:04:00;1.42;;;1.25;;
39442;SDS011;25147;52.142;9.960;2023-04-24T02:06:26;2.60;;;1.30;;
39442;SDS011;25147;52.142;9.960;2023-04-24T02:08:53;2.85;;;1.33;;
39442;SDS011;25147;52.142;9.960;2023-04-24T02:11:20;1.65;;;1.52;;
39442;SDS011;25147;52.142;9.960;2023-04-24T02:13:48;1.90;;;1.40;;
39442;SDS011;25147;52.142;9.960;2023-04-24T02:16:15;1.35;;;1.25;;
39442;SDS011;25147;52.142;9.960;2023-04-24T02:18:42;2.10;;;1.13;;
39442;SDS011;25147;52.142;9.960;2023-04-24T02:21:09;1.25;;;1.15;;
39442;SDS011;25147;52.142;9.960;2023-04-24T02:23:35;1.48;;;1.38;;
39442;SDS011;25147;52.142;9.960;2023-04-24T02:26:02;1.67;;;1.48;;
39442;SDS011;25147;52.142;9.960;2023-04-24T02:28:29;1.20;;;1.20;;
39442;SDS011;25147;52.142;9.960;2023-04-24T02:30:57;1.70;;;1.60;;
39442;SDS011;25147;52.142;9.960;2023-04-24T02:33:23;1.60;;;1.50;;
39442;SDS011;25147;52.142;9.960;2023-04-24T02:35:50;2.58;;;1.25;;
39442;SDS011;25147;52.142;9.960;2023-04-24T02:38:17;1.50;;;1.20;;
39442;SDS011;25147;52.142;9.960;2023-04-24T02:40:43;1.70;;;1.23;;
39442;SDS011;25147;52.142;9.960;2023-04-24T02:43:10;1.13;;;1.10;;
39442;SDS011;25147;52.142;9.960;2023-04-24T02:45:36;2.03;;;1.40;;
39442;SDS011;25147;52.142;9.960;2023-04-24T02:48:05;1.65;;;1.30;;
39442;SDS011;25147;52.142;9.960;2023-04-24T02:50:31;5.35;;;1.40;;
39442;SDS011;25147;52.142;9.960;2023-04-24T02:52:58;1.25;;;1.20;;
39442;SDS011;25147;52.142;9.960;2023-04-24T02:55:25;1.52;;;1.20;;
39442;SDS011;25147;52.142;9.960;2023-04-24T02:57:52;2.00;;;1.15;;
39442;SDS011;25147;52.142;9.960;2023-04-24T03:00:19;1.10;;;1.10;;
39442;SDS011;25147;52.142;9.960;2023-04-24T03:02:45;1.67;;;1.10;;
39442;SDS011;25147;52.142;9.960;2023-04-24T03:05:14;1.67;;;1.42;;
39442;SDS011;25147;52.142;9.960;2023-04-24T03:07:41;1.27;;;1.10;;
39442;SDS011;25147;52.142;9.960;2023-04-24T03:10:08;1.08;;;1.02;;
39442;SDS011;25147;52.142;9.960;2023-04-24T03:12:35;1.40;;;1.08;;
39442;SDS011;25147;52.142;9.960;2023-04-24T03:15:01;1.02;;;1.02;;
39442;SDS011;25147;52.142;9.960;2023-04-24T03:17:28;1.50;;;1.10;;
39442;SDS011;25147;52.142;9.960;2023-04-24T03:19:55;2.70;;;1.40;;
39442;SDS011;25147;52.142;9.960;2023-04-24T03:22:23;0.90;;;0.90;;
39442;SDS011;25147;52.142;9.960;2023-04-24T03:24:50;1.02;;;1.02;;
39442;SDS011;25147;52.142;9.960;2023-04-24T03:27:16;1.20;;;1.10;;
39442;SDS011;25147;52.142;9.960;2023-04-24T03:29:43;1.00;;;1.00;;
39442;SDS011;25147;52.142;9.960;2023-04-24T03:32:10;3.38;;;1.20;;
39442;SDS011;25147;52.142;9.960;2023-04-24T03:34:36;1.42;;;1.30;;
39442;SDS011;25147;52.142;9.960;2023-04-24T03:37:03;2.08;;;1.17;;
39442;SDS011;25147;52.142;9.960;2023-04-24T03:39:31;1.25;;;1.05;;
39442;SDS011;25147;52.142;9.960;2023-04-24T03:41:58;1.67;;;1.45;;
39442;SDS011;25147;52.142;9.960;2023-04-24T03:44:25;2.35;;;1.20;;
39442;SDS011;25147;52.142;9.960;2023-04-24T03:46:52;2.45;;;1.20;;
39442;SDS011;25147;52.142;9.960;2023-04-24T03:49:18;6.30;;;1.40;;
39442;SDS011;25147;52.142;9.960;2023-04-24T03:51:46;1.30;;;1.20;;
39442;SDS011;25147;52.142;9.960;2023-04-24T03:54:12;1.20;;;1.10;;
39442;SDS011;25147;52.142;9.960;2023-04-24T03:56:40;1.45;;;0.98;;
39442;SDS011;25147;52.142;9.960;2023-04-24T03:59:07;2.33;;;1.20;;
39442;SDS011;25147;52.142;9.960;2023-04-24T04:01:34;1.73;;;1.27;;
39442;SDS011;25147;52.142;9.960;2023-04-24T04:04:02;2.10;;;1.30;;
39442;SDS011;25147;52.142;9.960;2023-04-24T04:06:29;1.10;;;1.00;;
39442;SDS011;25147;52.142;9.960;2023-04-24T04:08:56;3.28;;;1.50;;
39442;SDS011;25147;52.142;9.960;2023-04-24T04:11:23;3.58;;;1.27;;
39442;SDS011;25147;52.142;9.960;2023-04-24T04:13:51;1.27;;;1.20;;
39442;SDS011;25147;52.142;9.960;2023-04-24T04:16:18;1.38;;;1.20;;
39442;SDS011;25147;52.142;9.960;2023-04-24T04:18:45;1.92;;;1.40;;
39442;SDS011;25147;52.142;9.960;2023-04-24T04:21:11;1.42;;;1.33;;
39442;SDS011;25147;52.142;9.960;2023-04-24T04:23:38;4.03;;;1.42;;
39442;SDS011;25147;52.142;9.960;2023-04-24T04:26:05;1.48;;;1.30;;
39442;SDS011;25147;52.142;9.960;2023-04-24T04:28:33;1.48;;;1.13;;
39442;SDS011;25147;52.142;9.960;2023-04-24T04:31:01;1.90;;;1.30;;
39442;SDS011;25147;52.142;9.960;2023-04-24T04:33:28;1.83;;;1.38;;
39442;SDS011;25147;52.142;9.960;2023-04-24T04:35:55;1.10;;;0.77;;
39442;SDS011;25147;52.142;9.960;2023-04-24T04:38:22;1.42;;;0.90;;
39442;SDS011;25147;52.142;9.960;2023-04-24T04:40:49;1.83;;;1.05;;
39442;SDS011;25147;52.142;9.960;2023-04-24T04:43:16;2.55;;;1.00;;
39442;SDS011;25147;52.142;9.960;2023-04-24T04:45:43;1.27;;;0.85;;
39442;SDS011;25147;52.142;9.960;2023-04-24T04:48:11;1.10;;;1.00;;
39442;SDS011;25147;52.142;9.960;2023-04-24T04:50:39;2.35;;;1.00;;
39442;SDS011;25147;52.142;9.960;2023-04-24T04:53:05;1.00;;;0.90;;
39442;SDS011;25147;52.142;9.960;2023-04-24T04:55:32;1.75;;;1.48;;
39442;SDS011;25147;52.142;9.960;2023-04-24T04:57:58;1.15;;;1.00;;
39442;SDS011;25147;52.142;9.960;2023-04-24T05:00:26;1.73;;;1.40;;
39442;SDS011;25147;52.142;9.960;2023-04-24T05:02:54;1.65;;;1.00;;
39442;SDS011;25147;52.142;9.960;2023-04-24T05:05:22;2.85;;;1.23;;
39442;SDS011;25147;52.142;9.960;2023-04-24T05:07:48;3.92;;;1.10;;
39442;SDS011;25147;52.142;9.960;2023-04-24T05:10:15;1.13;;;1.02;;
39442;SDS011;25147;52.142;9.960;2023-04-24T05:12:42;2.45;;;1.10;;
39442;SDS011;25147;52.142;9.960;2023-04-24T05:15:08;1.65;;;0.90;;
39442;SDS011;25147;52.142;9.960;2023-04-24T05:17:36;2.72;;;1.10;;
39442;SDS011;25147;52.142;9.960;2023-04-24T05:20:05;1.00;;;1.00;;
39442;SDS011;25147;52.142;9.960;2023-04-24T05:22:34;1.45;;;0.82;;
39442;SDS011;25147;52.142;9.960;2023-04-24T05:25:01;1.77;;;0.70;;
39442;SDS011;25147;52.142;9.960;2023-04-24T05:27:28;1.20;;;0.80;;
39442;SDS011;25147;52.142;9.960;2023-04-24T05:29:55;0.80;;;0.80;;
39442;SDS011;25147;52.142;9.960;2023-04-24T05:32:21;1.58;;;1.08;;
39442;SDS011;25147;52.142;9.960;2023-04-24T05:34:48;0.98;;;0.57;;
39442;SDS011;25147;52.142;9.960;2023-04-24T05:37:15;2.28;;;0.60;;
39442;SDS011;25147;52.142;9.960;2023-04-24T05:39:43;3.28;;;0.80;;
39442;SDS011;25147;52.142;9.960;2023-04-24T05:42:10;2.85;;;0.75;;
39442;SDS011;25147;52.142;9.960;2023-04-24T05:44:39;1.10;;;0.85;;
39442;SDS011;25147;52.142;9.960;2023-04-24T05:47:06;2.80;;;0.60;;
39442;SDS011;25147;52.142;9.960;2023-04-24T05:49:32;0.68;;;0.65;;
39442;SDS011;25147;52.142;9.960;2023-04-24T05:51:59;0.93;;;0.82;;
39442;SDS011;25147;52.142;9.960;2023-04-24T05:54:26;0.65;;;0.57;;
39442;SDS011;25147;52.142;9.960;2023-04-24T05:56:54;2.50;;;0.60;;
39442;SDS011;25147;52.142;9.960;2023-04-24T05:59:21;0.82;;;0.68;;
39442;SDS011;25147;52.142;9.960;2023-04-24T06:01:47;0.63;;;0.50;;
39442;SDS011;25147;52.142;9.960;2023-04-24T06:04:14;0.60;;;0.60;;
39442;SDS011;25147;52.142;9.960;2023-04-24T06:06:41;1.02;;;0.57;;
39442;SDS011;25147;52.142;9.960;2023-04-24T06:09:07;1.65;;;0.77;;
39442;SDS011;25147;52.142;9.960;2023-04-24T06:11:34;0.90;;;0.90;;
39442;SDS011;25147;52.142;9.960;2023-04-24T06:14:02;1.00;;;0.70;;
39442;SDS011;25147;52.142;9.960;2023-04-24T06:16:29;0.80;;;0.80;;
39442;SDS011;25147;52.142;9.960;2023-04-24T06:18:56;0.40;;;0.40;;
39442;SDS011;25147;52.142;9.960;2023-04-24T06:21:23;0.57;;;0.57;;
39442;SDS011;25147;52.142;9.960;2023-04-24T06:23:50;0.82;;;0.60;;
39442;SDS011;25147;52.142;9.960;2023-04-24T06:26:17;1.15;;;0.73;;
39442;SDS011;25147;52.142;9.960;2023-04-24T06:28:44;1.38;;;0.70;;
39442;SDS011;25147;52.142;9.960;2023-04-24T06:31:12;1.60;;;0.80;;
39442;SDS011;25147;52.142;9.960;2023-04-24T06:33:38;1.45;;;1.08;;
39442;SDS011;25147;52.142;9.960;2023-04-24T06:36:05;1.13;;;1.02;;
39442;SDS011;25147;52.142;9.960;2023-04-24T06:38:32;1.40;;;1.30;;
39442;SDS011;25147;52.142;9.960;2023-04-24T06:40:59;1.67;;;1.17;;
39442;SDS011;25147;52.142;9.960;2023-04-24T06:43:26;1.58;;;1.27;;
39442;SDS011;25147;52.142;9.960;2023-04-24T06:45:53;1.85;;;1.27;;
39442;SDS011;25147;52.142;9.960;2023-04-24T06:48:21;1.50;;;1.40;;
39442;SDS011;25147;52.142;9.960;2023-04-24T06:50:47;1.48;;;1.38;;
39442;SDS011;25147;52.142;9.960;2023-04-24T06:53:14;1.45;;;1.33;;
39442;SDS011;25147;52.142;9.960;2023-04-24T06:55:41;1.20;;;1.10;;
39442;SDS011;25147;52.142;9.960;2023-04-24T06:58:10;1.83;;;1.70;;
39442;SDS011;25147;52.142;9.960;2023-04-24T07:00:37;1.67;;;1.38;;
39442;SDS011;25147;52.142;9.960;2023-04-24T07:03:04;2.22;;;1.30;;
39442;SDS011;25147;52.142;9.960;2023-04-24T07:05:32;1.75;;;1.52;;
39442;SDS011;25147;52.142;9.960;2023-04-24T07:08:00;1.58;;;1.48;;
39442;SDS011;25147;52.142;9.960;2023-04-24T07:10:26;2.28;;;1.13;;
39442;SDS011;25147;52.142;9.960;2023-04-24T07:12:54;1.60;;;1.50;;
39442;SDS011;25147;52.142;9.960;2023-04-24T07:15:21;3.42;;;2.00;;
39442;SDS011;25147;52.142;9.960;2023-04-24T07:17:48;3.65;;;1.67;;
39442;SDS011;25147;52.142;9.960;2023-04-24T07:20:15;2.40;;;1.77;;
39442;SDS011;25147;52.142;9.960;2023-04-24T07:22:44;2.95;;;1.80;;
39442;SDS011;25147;52.142;9.960;2023-04-24T07:25:10;2.97;;;1.98;;
39442;SDS011;25147;52.142;9.960;2023-04-24T07:27:37;2.15;;;1.73;;
39442;SDS011;25147;52.142;9.960;2023-04-24T07:30:04;2.50;;;2.30;;
39442;SDS011;25147;52.142;9.960;2023-04-24T07:32:32;3.03;;;2.20;;
39442;SDS011;25147;52.142;9.960;2023-04-24T07:34:58;2.38;;;2.17;;
39442;SDS011;25147;52.142;9.960;2023-04-24T07:37:25;4.18;;;3.47;;
39442;SDS011;25147;52.142;9.960;2023-04-24T07:39:53;4.40;;;4.00;;
39442;SDS011;25147;52.142;9.960;2023-04-24T07:42:21;4.18;;;3.78;;
39442;SDS011;25147;52.142;9.960;2023-04-24T07:44:47;4.00;;;3.70;;
39442;SDS011;25147;52.142;9.960;2023-04-24T07:47:14;4.18;;;3.88;;
39442;SDS011;25147;52.142;9.960;2023-04-24T07:49:41;4.55;;;4.10;;
39442;SDS011;25147;52.142;9.960;2023-04-24T07:52:08;5.20;;;3.88;;
39442;SDS011;25147;52.142;9.960;2023-04-24T07:54:35;4.43;;;4.03;;
39442;SDS011;25147;52.142;9.960;2023-04-24T07:57:04;5.38;;;4.95;;
39442;SDS011;25147;52.142;9.960;2023-04-24T07:59:32;5.63;;;4.80;;
39442;SDS011;25147;52.142;9.960;2023-04-24T08:01:58;5.20;;;4.80;;
39442;SDS011;25147;52.142;9.960;2023-04-24T08:04:26;6.93;;;4.57;;
39442;SDS011;25147;52.142;9.960;2023-04-24T08:06:53;4.72;;;4.28;;
39442;SDS011;25147;52.142;9.960;2023-04-24T08:09:19;5.13;;;4.65;;
39442;SDS011;25147;52.142;9.960;2023-04-24T08:11:46;5.90;;;4.32;;
39442;SDS011;25147;52.142;9.960;2023-04-24T08:14:14;5.00;;;4.50;;
39442;SDS011;25147;52.142;9.960;2023-04-24T08:16:41;5.32;;;4.70;;
39442;SDS011;25147;52.142;9.960;2023-04-24T08:19:08;4.85;;;4.13;;
39442;SDS011;25147;52.142;9.960;2023-04-24T08:21:34;4.60;;;3.83;;
39442;SDS011;25147;52.142;9.960;2023-04-24T08:24:01;4.35;;;3.95;;
39442;SDS011;25147;52.142;9.960;2023-04-24T08:26:30;5.57;;;3.65;;
39442;SDS011;25147;52.142;9.960;2023-04-24T08:28:59;5.28;;;4.75;;
39442;SDS011;25147;52.142;9.960;2023-04-24T08:31:28;4.18;;;3.75;;
39442;SDS011;25147;52.142;9.960;2023-04-24T08:33:54;3.60;;;3.30;;
39442;SDS011;25147;52.142;9.960;2023-04-24T08:36:21;5.82;;;3.50;;
39442;SDS011;25147;52.142;9.960;2023-04-24T08:38:48;3.65;;;3.33;;
39442;SDS011;25147;52.142;9.960;2023-04-24T08:41:15;3.38;;;3.08;;
39442;SDS011;25147;52.142;9.960;2023-04-24T08:43:45;5.00;;;3.40;;
39442;SDS011;25147;52.142;9.960;2023-04-24T08:46:13;4.95;;;3.33;;
39442;SDS011;25147;52.142;9.960;2023-04-24T08:48:41;3.20;;;3.00;;
39442;SDS011;25147;52.142;9.960;2023-04-24T08:51:08;3.45;;;3.15;;
39442;SDS011;25147;52.142;9.960;2023-04-24T08:53:36;3.25;;;2.95;;
39442;SDS011;25147;52.142;9.960;2023-04-24T08:56:03;3.08;;;2.88;;
39442;SDS011;25147;52.142;9.960;2023-04-24T08:58:31;4.18;;;3.35;;
39442;SDS011;25147;52.142;9.960;2023-04-24T09:00:58;3.45;;;3.15;;
39442;SDS011;25147;52.142;9.960;2023-04-24T09:03:26;4.70;;;3.05;;
39442;SDS011;25147;52.142;9.960;2023-04-24T09:05:55;3.67;;;3.38;;
39442;SDS011;25147;52.142;9.960;2023-04-24T09:08:23;4.47;;;4.07;;
39442;SDS011;25147;52.142;9.960;2023-04-24T09:10:51;4.18;;;3.78;;
39442;SDS011;25147;52.142;9.960;2023-04-24T09:13:18;5.53;;;3.17;;
39442;SDS011;25147;52.142;9.960;2023-04-24T09:15:45;3.35;;;3.13;;
39442;SDS011;25147;52.142;9.960;2023-04-24T09:18:13;3.92;;;2.80;;
39442;SDS011;25147;52.142;9.960;2023-04-24T09:23:26;4.28;;;2.50;;
39442;SDS011;25147;52.142;9.960;2023-04-24T09:25:54;2.80;;;2.25;;
39442;SDS011;25147;52.142;9.960;2023-04-24T09:28:25;3.10;;;2.17;;
39442;SDS011;25147;52.142;9.960;2023-04-24T09:31:01;2.10;;;2.00;;
39442;SDS011;25147;52.142;9.960;2023-04-24T09:33:29;3.10;;;2.10;;
39442;SDS011;25147;52.142;9.960;2023-04-24T09:35:56;2.65;;;2.25;;
39442;SDS011;25147;52.142;9.960;2023-04-24T09:38:32;2.65;;;2.40;;
39442;SDS011;25147;52.142;9.960;2023-04-24T09:41:00;2.90;;;2.20;;
39442;SDS011;25147;52.142;9.960;2023-04-24T09:43:28;3.33;;;2.50;;
39442;SDS011;25147;52.142;9.960;2023-04-24T09:45:56;2.40;;;2.20;;
39442;SDS011;25147;52.142;9.960;2023-04-24T09:48:30;3.60;;;2.42;;
39442;SDS011;25147;52.142;9.960;2023-04-24T09:50:57;2.15;;;1.95;;
39442;SDS011;25147;52.142;9.960;2023-04-24T09:53:24;3.03;;;2.10;;
39442;SDS011;25147;52.142;9.960;2023-04-24T09:55:53;3.67;;;2.20;;
39442;SDS011;25147;52.142;9.960;2023-04-24T09:58:24;1.95;;;1.77;;
39442;SDS011;25147;52.142;9.960;2023-04-24T10:00:53;2.70;;;2.13;;
39442;SDS011;25147;52.142;9.960;2023-04-24T10:03:20;2.03;;;1.83;;
39442;SDS011;25147;52.142;9.960;2023-04-24T10:05:47;3.03;;;2.00;;
39442;SDS011;25147;52.142;9.960;2023-04-24T10:08:14;2.30;;;2.10;;
39442;SDS011;25147;52.142;9.960;2023-04-24T10:10:41;2.75;;;1.80;;
39442;SDS011;25147;52.142;9.960;2023-04-24T10:13:10;2.60;;;1.90;;
39442;SDS011;25147;52.142;9.960;2023-04-24T10:15:39;1.65;;;1.55;;
39442;SDS011;25147;52.142;9.960;2023-04-24T10:18:07;1.98;;;1.88;;
39442;SDS011;25147;52.142;9.960;2023-04-24T10:20:36;3.03;;;1.50;;
39442;SDS011;25147;52.142;9.960;2023-04-24T10:23:04;2.28;;;1.90;;
39442;SDS011;25147;52.142;9.960;2023-04-24T10:25:32;2.15;;;2.00;;
39442;SDS011;25147;52.142;9.960;2023-04-24T10:28:00;2.42;;;2.00;;
39442;SDS011;25147;52.142;9.960;2023-04-24T10:30:29;3.20;;;2.08;;
39442;SDS011;25147;52.142;9.960;2023-04-24T10:33:00;2.70;;;2.33;;
39442;SDS011;25147;52.142;9.960;2023-04-24T10:35:27;1.85;;;1.75;;
39442;SDS011;25147;52.142;9.960;2023-04-24T10:37:58;2.40;;;2.20;;
39442;SDS011;25147;52.142;9.960;2023-04-24T10:40:30;1.95;;;1.85;;
39442;SDS011;25147;52.142;9.960;2023-04-24T10:42:58;2.10;;;2.00;;
39442;SDS011;25147;52.142;9.960;2023-04-24T10:45:25;3.25;;;2.10;;
39442;SDS011;25147;52.142;9.960;2023-04-24T10:47:54;3.70;;;2.20;;
39442;SDS011;25147;52.142;9.960;2023-04-24T10:50:25;2.65;;;2.13;;
39442;SDS011;25147;52.142;9.960;2023-04-24T10:52:53;2.33;;;2.13;;
39442;SDS011;25147;52.142;9.960;2023-04-24T10:55:39;2.05;;;1.95;;
39442;SDS011;25147;52.142;9.960;2023-04-24T10:58:07;2.17;;;1.98;;
39442;SDS011;25147;52.142;9.960;2023-04-24T11:00:35;2.03;;;1.92;;
39442;SDS011;25147;52.142;9.960;2023-04-24T11:03:05;2.97;;;2.03;;
39442;SDS011;25147;52.142;9.960;2023-04-24T11:05:48;2.85;;;2.65;;
39442;SDS011;25147;52.142;9.960;2023-04-24T11:08:21;2.50;;;2.30;;
39442;SDS011;25147;52.142;9.960;2023-04-24T11:10:54;2.40;;;2.20;;
39442;SDS011;25147;52.142;9.960;2023-04-24T11:13:23;2.80;;;2.60;;
39442;SDS011;25147;52.142;9.960;2023-04-24T11:18:42;2.28;;;2.17;;
39442;SDS011;25147;52.142;9.960;2023-04-24T11:21:16;3.20;;;2.00;;
39442;SDS011;25147;52.142;9.960;2023-04-24T11:23:44;2.08;;;1.95;;
39442;SDS011;25147;52.142;9.960;2023-04-24T11:26:12;1.65;;;1.55;;
39442;SDS011;25147;52.142;9.960;2023-04-24T11:28:46;1.60;;;1.50;;
39442;SDS011;25147;52.142;9.960;2023-04-24T11:34:11;1.88;;;1.50;;
39442;SDS011;25147;52.142;9.960;2023-04-24T11:36:39;1.60;;;1.33;;
39442;SDS011;25147;52.142;9.960;2023-04-24T11:39:06;2.50;;;1.50;;
39442;SDS011;25147;52.142;9.960;2023-04-24T11:41:33;1.40;;;1.30;;
39442;SDS011;25147;52.142;9.960;2023-04-24T11:44:00;1.75;;;1.27;;
39442;SDS011;25147;52.142;9.960;2023-04-24T11:46:29;1.15;;;1.05;;
39442;SDS011;25147;52.142;9.960;2023-04-24T11:48:57;1.02;;;1.00;;
39442;SDS011;25147;52.142;9.960;2023-04-24T11:51:26;2.08;;;1.13;;
39442;SDS011;25147;52.142;9.960;2023-04-24T11:53:54;3.83;;;1.20;;
39442;SDS011;25147;52.142;9.960;2023-04-24T11:56:21;1.30;;;1.30;;
39442;SDS011;25147;52.142;9.960;2023-04-24T11:58:48;1.40;;;1.30;;
39442;SDS011;25147;52.142;9.960;2023-04-24T12:01:17;1.35;;;1.25;;
39442;SDS011;25147;52.142;9.960;2023-04-24T12:03:46;1.40;;;1.27;;
39442;SDS011;25147;52.142;9.960;2023-04-24T12:06:18;1.38;;;1.27;;
39442;SDS011;25147;52.142;9.960;2023-04-24T12:08:47;1.30;;;1.20;;
39442;SDS011;25147;52.142;9.960;2023-04-24T12:11:16;2.70;;;1.00;;
39442;SDS011;25147;52.142;9.960;2023-04-24T12:13:46;0.98;;;0.77;;
39442;SDS011;25147;52.142;9.960;2023-04-24T12:16:13;3.55;;;0.88;;
39442;SDS011;25147;52.142;9.960;2023-04-24T12:18:43;0.95;;;0.70;;
39442;SDS011;25147;52.142;9.960;2023-04-24T12:21:18;0.65;;;0.65;;
39442;SDS011;25147;52.142;9.960;2023-04-24T12:23:48;0.75;;;0.75;;
39442;SDS011;25147;52.142;9.960;2023-04-24T12:26:16;1.60;;;1.08;;
39442;SDS011;25147;52.142;9.960;2023-04-24T12:28:47;1.42;;;0.90;;
39442;SDS011;25147;52.142;9.960;2023-04-24T12:31:20;0.60;;;0.60;;
39442;SDS011;25147;52.142;9.960;2023-04-24T12:33:48;0.88;;;0.82;;
39442;SDS011;25147;52.142;9.960;2023-04-24T12:36:15;0.70;;;0.70;;
39442;SDS011;25147;52.142;9.960;2023-04-24T12:38:43;0.70;;;0.68;;
39442;SDS011;25147;52.142;9.960;2023-04-24T12:41:13;0.80;;;0.80;;
39442;SDS011;25147;52.142;9.960;2023-04-24T12:43:50;0.80;;;0.77;;
39442;SDS011;25147;52.142;9.960;2023-04-24T12:46:18;0.60;;;0.60;;
39442;SDS011;25147;52.142;9.960;2023-04-24T12:48:45;0.45;;;0.45;;
39442;SDS011;25147;52.142;9.960;2023-04-24T12:51:12;0.60;;;0.60;;
39442;SDS011;25147;52.142;9.960;2023-04-24T12:53:38;0.93;;;0.77;;
39442;SDS011;25147;52.142;9.960;2023-04-24T12:56:05;0.77;;;0.40;;
39442;SDS011;25147;52.142;9.960;2023-04-24T12:58:33;0.50;;;0.50;;
39442;SDS011;25147;52.142;9.960;2023-04-24T13:01:00;0.90;;;0.90;;
39442;SDS011;25147;52.142;9.960;2023-04-24T13:03:27;1.30;;;0.70;;
39442;SDS011;25147;52.142;9.960;2023-04-24T13:05:55;0.88;;;0.88;;
39442;SDS011;25147;52.142;9.960;2023-04-24T13:08:21;0.80;;;0.80;;
39442;SDS011;25147;52.142;9.960;2023-04-24T13:10:48;0.90;;;0.90;;
39442;SDS011;25147;52.142;9.960;2023-04-24T13:13:22;0.82;;;0.82;;
39442;SDS011;25147;52.142;9.960;2023-04-24T13:15:51;1.17;;;1.00;;
39442;SDS011;25147;52.142;9.960;2023-04-24T13:18:21;1.05;;;1.00;;
39442;SDS011;25147;52.142;9.960;2023-04-24T13:20:47;2.90;;;2.78;;
39442;SDS011;25147;52.142;9.960;2023-04-24T13:23:14;0.90;;;0.90;;
39442;SDS011;25147;52.142;9.960;2023-04-24T13:25:42;1.10;;;1.10;;
39442;SDS011;25147;52.142;9.960;2023-04-24T13:28:10;0.93;;;0.90;;
39442;SDS011;25147;52.142;9.960;2023-04-24T13:30:37;1.00;;;0.90;;
39442;SDS011;25147;52.142;9.960;2023-04-24T13:33:08;0.70;;;0.70;;
39442;SDS011;25147;52.142;9.960;2023-04-24T13:35:38;0.63;;;0.63;;
39442;SDS011;25147;52.142;9.960;2023-04-24T13:38:05;0.63;;;0.63;;
39442;SDS011;25147;52.142;9.960;2023-04-24T13:40:32;0.60;;;0.60;;
39442;SDS011;25147;52.142;9.960;2023-04-24T13:43:00;4.57;;;0.80;;
39442;SDS011;25147;52.142;9.960;2023-04-24T13:45:28;0.70;;;0.70;;
39442;SDS011;25147;52.142;9.960;2023-04-24T13:47:55;0.50;;;0.50;;
39442;SDS011;25147;52.142;9.960;2023-04-24T13:50:29;1.20;;;0.30;;
39442;SDS011;25147;52.142;9.960;2023-04-24T13:52:56;0.40;;;0.40;;
39442;SDS011;25147;52.142;9.960;2023-04-24T13:55:25;0.73;;;0.30;;
39442;SDS011;25147;52.142;9.960;2023-04-24T13:57:52;0.47;;;0.20;;
39442;SDS011;25147;52.142;9.960;2023-04-24T14:00:20;0.52;;;0.30;;
39442;SDS011;25147;52.142;9.960;2023-04-24T14:02:48;0.40;;;0.40;;
39442;SDS011;25147;52.142;9.960;2023-04-24T14:05:15;0.30;;;0.30;;
39442;SDS011;25147;52.142;9.960;2023-04-24T14:07:43;0.30;;;0.30;;
39442;SDS011;25147;52.142;9.960;2023-04-24T14:10:10;0.30;;;0.30;;
39442;SDS011;25147;52.142;9.960;2023-04-24T14:12:37;2.30;;;0.52;;
39442;SDS011;25147;52.142;9.960;2023-04-24T14:15:04;0.40;;;0.40;;
39442;SDS011;25147;52.142;9.960;2023-04-24T14:17:32;0.20;;;0.20;;
39442;SDS011;25147;52.142;9.960;2023-04-24T14:19:59;0.47;;;0.32;;
39442;SDS011;25147;52.142;9.960;2023-04-24T14:22:26;1.15;;;0.40;;
39442;SDS011;25147;52.142;9.960;2023-04-24T14:24:54;0.40;;;0.40;;
39442;SDS011;25147;52.142;9.960;2023-04-24T14:27:21;1.55;;;1.10;;
39442;SDS011;25147;52.142;9.960;2023-04-24T14:29:48;0.73;;;0.73;;
39442;SDS011;25147;52.142;9.960;2023-04-24T14:32:15;0.50;;;0.50;;
39442;SDS011;25147;52.142;9.960;2023-04-24T14:34:42;0.68;;;0.50;;
39442;SDS011;25147;52.142;9.960;2023-04-24T14:37:09;0.50;;;0.50;;
39442;SDS011;25147;52.142;9.960;2023-04-24T14:39:36;1.75;;;0.70;;
39442;SDS011;25147;52.142;9.960;2023-04-24T14:42:04;0.45;;;0.45;;
39442;SDS011;25147;52.142;9.960;2023-04-24T14:44:32;0.82;;;0.82;;
39442;SDS011;25147;52.142;9.960;2023-04-24T14:47:01;1.17;;;1.10;;
39442;SDS011;25147;52.142;9.960;2023-04-24T14:49:28;1.38;;;0.90;;
39442;SDS011;25147;52.142;9.960;2023-04-24T14:51:58;1.00;;;0.90;;
39442;SDS011;25147;52.142;9.960;2023-04-24T14:54:25;0.52;;;0.52;;
39442;SDS011;25147;52.142;9.960;2023-04-24T14:56:52;1.00;;;0.90;;
39442;SDS011;25147;52.142;9.960;2023-04-24T14:59:24;1.13;;;0.82;;